Time;durP1;ratioP1;P1;durP2;ratioP2;P2;SDS_P1;SDS_P2;PMS_P1;PMS_P2;Temp;Humidity;BMP_temperature;BMP_pressure;BME280_temperature;BME280_humidity;BME280_pressure;Samples;Min_cycle;Max_cycle;Signal;HPM_P1;HPM_P2
2023/04/03 00:01:21;;;;;;;33.20;19.97;;;0.20;99.90;;;;;;4859322;29;20271;-54
2023/04/03 00:03:49;;;;;;;36.83;20.90;;;0.20;99.90;;;;;;4856429;29;20220;-56
2023/04/03 00:06:18;;;;;;;34.47;20.73;;;0.20;99.90;;;;;;4854165;29;20710;-54
2023/04/03 00:08:47;;;;;;;31.93;19.73;;;0.20;99.90;;;;;;4856153;29;20268;-54
2023/04/03 00:11:16;;;;;;;35.30;20.00;;;0.20;99.90;;;;;;4859271;29;20241;-55
2023/04/03 00:13:45;;;;;;;35.47;20.57;;;0.20;99.90;;;;;;4857860;29;20236;-54
2023/04/03 00:16:14;;;;;;;36.40;20.23;;;0.10;99.90;;;;;;4862697;29;20245;-55
2023/04/03 00:18:42;;;;;;;30.73;19.83;;;0.10;99.90;;;;;;4861921;29;20334;-56
2023/04/03 00:21:12;;;;;;;33.57;20.40;;;0.10;99.90;;;;;;4858274;29;20846;-55
2023/04/03 00:23:41;;;;;;;30.53;18.97;;;0.10;99.90;;;;;;4853154;29;20219;-55
2023/04/03 00:26:10;;;;;;;32.63;19.60;;;0.10;99.90;;;;;;4862596;29;21130;-55
2023/04/03 00:28:39;;;;;;;37.97;22.20;;;0.10;99.90;;;;;;4858599;29;20204;-56
2023/04/03 00:31:07;;;;;;;31.37;20.07;;;0.10;99.90;;;;;;4856123;29;20196;-55
2023/04/03 00:33:35;;;;;;;34.47;19.67;;;0.10;99.90;;;;;;4860988;29;20223;-55
2023/04/03 00:36:07;;;;;;;30.40;19.03;;;0.10;99.90;;;;;;4856772;29;20573;-56
2023/04/03 00:38:36;;;;;;;31.20;19.57;;;0.00;99.90;;;;;;4853653;29;20228;-55
2023/04/03 00:41:05;;;;;;;34.27;19.90;;;0.00;99.90;;;;;;4857354;29;20630;-56
2023/04/03 00:43:35;;;;;;;33.67;20.47;;;-0.10;99.90;;;;;;4853235;29;20200;-56
2023/04/03 00:46:04;;;;;;;37.47;20.60;;;-0.10;99.90;;;;;;4855597;29;20227;-56
2023/04/03 00:48:35;;;;;;;33.67;19.57;;;-0.10;99.90;;;;;;4856298;29;20578;-56
2023/04/03 00:51:06;;;;;;;38.97;21.33;;;-0.10;99.90;;;;;;4855587;29;20240;-56
2023/04/03 00:53:39;;;;;;;29.97;19.80;;;-0.10;99.90;;;;;;4856490;29;20372;-55
2023/04/03 00:56:11;;;;;;;33.17;19.63;;;-0.10;99.90;;;;;;4854626;29;20296;-56
2023/04/03 00:58:44;;;;;;;31.83;19.53;;;-0.10;99.90;;;;;;4855930;29;20235;-56
2023/04/03 01:01:16;;;;;;;37.40;19.37;;;-0.10;99.90;;;;;;4855810;29;20231;-55
2023/04/03 01:03:44;;;;;;;31.37;19.83;;;-0.10;99.90;;;;;;4857585;29;20220;-54
2023/04/03 01:06:13;;;;;;;31.53;18.60;;;-0.10;99.90;;;;;;4853907;29;20259;-56
2023/04/03 01:08:42;;;;;;;30.43;18.20;;;-0.10;99.90;;;;;;4857967;29;20235;-56
2023/04/03 01:11:10;;;;;;;31.47;18.33;;;-0.10;99.90;;;;;;4855689;29;20286;-56
2023/04/03 01:13:38;;;;;;;32.83;18.33;;;-0.20;99.90;;;;;;4859499;29;20196;-53
2023/04/03 01:16:08;;;;;;;28.03;17.77;;;-0.20;99.90;;;;;;4856751;29;20195;-56
2023/04/03 01:18:39;;;;;;;29.13;17.50;;;-0.20;99.90;;;;;;4858082;29;20716;-55
2023/04/03 01:21:30;;;;;;;30.00;17.60;;;-0.20;99.90;;;;;;4859586;29;20223;-54
2023/04/03 01:24:24;;;;;;;25.57;16.80;;;-0.20;99.90;;;;;;4858961;29;20231;-55
2023/04/03 01:26:52;;;;;;;29.83;17.07;;;-0.20;99.90;;;;;;4853824;29;20291;-56
2023/04/03 01:29:21;;;;;;;27.90;17.53;;;-0.20;99.90;;;;;;4859546;29;20227;-56
2023/04/03 01:31:53;;;;;;;27.17;16.63;;;-0.20;99.90;;;;;;4853374;29;20219;-56
2023/04/03 01:34:22;;;;;;;28.63;16.20;;;-0.20;99.90;;;;;;4858495;29;20199;-56
2023/04/03 01:36:51;;;;;;;24.83;15.77;;;-0.20;99.90;;;;;;4855553;29;20275;-55
2023/04/03 01:39:20;;;;;;;31.20;16.87;;;-0.20;99.90;;;;;;4858760;29;20285;-55
2023/04/03 01:41:48;;;;;;;25.33;15.90;;;-0.20;99.90;;;;;;4854900;29;20226;-55
2023/04/03 01:44:16;;;;;;;33.40;16.57;;;-0.20;99.90;;;;;;4855458;29;20228;-54
2023/04/03 01:46:44;;;;;;;22.40;15.30;;;-0.20;99.90;;;;;;4856540;29;20223;-55
2023/04/03 01:49:14;;;;;;;24.57;15.03;;;-0.30;99.90;;;;;;4858606;29;20206;-56
2023/04/03 01:51:42;;;;;;;31.60;17.07;;;-0.20;99.90;;;;;;4854095;29;20224;-52
2023/04/03 01:54:11;;;;;;;32.80;16.87;;;-0.20;99.90;;;;;;4849744;29;20219;-55
2023/04/03 01:56:39;;;;;;;29.17;16.37;;;-0.20;99.90;;;;;;4856448;29;20272;-55
2023/04/03 01:59:07;;;;;;;22.20;15.03;;;-0.20;99.90;;;;;;4855254;29;20232;-56
2023/04/03 02:01:35;;;;;;;29.60;15.40;;;-0.20;99.90;;;;;;4857117;29;20207;-56
2023/04/03 02:04:04;;;;;;;27.43;15.53;;;-0.20;99.90;;;;;;4862939;29;20616;-55
2023/04/03 02:06:34;;;;;;;25.43;15.17;;;-0.20;99.90;;;;;;4858332;29;20235;-57
2023/04/03 02:09:03;;;;;;;24.47;15.43;;;-0.20;99.90;;;;;;4854015;29;20223;-56
2023/04/03 02:11:31;;;;;;;30.50;15.83;;;-0.30;99.90;;;;;;4853516;29;20710;-55
2023/04/03 02:13:59;;;;;;;27.93;15.37;;;-0.30;99.90;;;;;;4858659;29;20227;-56
2023/04/03 02:16:28;;;;;;;27.83;16.03;;;-0.30;99.90;;;;;;4852742;29;20199;-55
2023/04/03 02:18:57;;;;;;;24.70;15.40;;;-0.30;99.90;;;;;;4854767;29;20240;-54
2023/04/03 02:21:25;;;;;;;28.13;15.47;;;-0.20;99.90;;;;;;4852479;29;20251;-56
2023/04/03 02:23:55;;;;;;;26.87;15.43;;;-0.20;99.90;;;;;;4854465;29;20598;-55
2023/04/03 02:26:23;;;;;;;28.47;15.57;;;-0.20;99.90;;;;;;4857677;29;20259;-56
2023/04/03 02:28:51;;;;;;;23.57;14.73;;;-0.20;99.90;;;;;;4857691;29;20199;-53
2023/04/03 02:31:20;;;;;;;24.47;14.47;;;-0.20;99.90;;;;;;4860438;29;20279;-54
2023/04/03 02:33:49;;;;;;;30.33;15.27;;;-0.10;99.90;;;;;;4855306;29;20231;-54
2023/04/03 02:36:17;;;;;;;24.37;14.90;;;-0.10;99.90;;;;;;4851261;29;20265;-56
2023/04/03 02:38:46;;;;;;;26.13;14.23;;;-0.20;99.90;;;;;;4859276;29;20274;-54
2023/04/03 02:41:16;;;;;;;22.00;14.23;;;-0.20;99.90;;;;;;4849844;29;20590;-55
2023/04/03 02:43:44;;;;;;;22.67;13.40;;;-0.20;99.90;;;;;;4852790;29;20604;-55
2023/04/03 02:46:14;;;;;;;22.43;14.30;;;-0.30;99.90;;;;;;4852585;29;20227;-54
2023/04/03 02:48:43;;;;;;;25.50;14.23;;;-0.20;99.90;;;;;;4854487;29;20227;-56
2023/04/03 02:51:11;;;;;;;26.30;14.10;;;-0.20;99.90;;;;;;4853072;29;20247;-54
2023/04/03 02:53:40;;;;;;;22.80;13.40;;;-0.30;99.90;;;;;;4850629;29;20223;-54
2023/04/03 02:56:08;;;;;;;21.47;12.77;;;-0.40;99.90;;;;;;4869320;29;20306;-55
2023/04/03 02:58:40;;;;;;;20.43;12.37;;;-0.40;99.90;;;;;;4855556;29;20200;-55
2023/04/03 03:01:09;;;;;;;18.00;12.73;;;-0.40;99.90;;;;;;4857671;29;20268;-55
2023/04/03 03:03:37;;;;;;;23.53;13.37;;;-0.40;99.90;;;;;;4859543;29;20249;-54
2023/04/03 03:06:07;;;;;;;20.40;13.77;;;-0.40;99.90;;;;;;4857642;29;20246;-55
2023/04/03 03:08:36;;;;;;;28.73;13.17;;;-0.40;99.90;;;;;;4847947;29;20227;-56
2023/04/03 03:11:05;;;;;;;19.80;12.33;;;-0.40;99.90;;;;;;4855117;29;20304;-56
2023/04/03 03:13:34;;;;;;;20.70;13.17;;;-0.40;99.90;;;;;;4856709;29;20204;-53
2023/04/03 03:16:05;;;;;;;22.43;13.33;;;-0.40;99.90;;;;;;4857216;29;20196;-56
2023/04/03 03:18:33;;;;;;;26.03;13.43;;;-0.40;99.90;;;;;;4858953;29;20310;-56
2023/04/03 03:21:03;;;;;;;21.37;13.53;;;-0.40;99.90;;;;;;4852000;29;20333;-54
2023/04/03 03:23:32;;;;;;;19.47;13.13;;;-0.40;99.90;;;;;;4855278;29;20231;-55
2023/04/03 03:26:04;;;;;;;26.93;14.13;;;-0.40;99.90;;;;;;4856139;29;20298;-55
2023/04/03 03:28:33;;;;;;;22.07;13.43;;;-0.50;99.90;;;;;;4859669;29;20199;-55
2023/04/03 03:31:01;;;;;;;23.80;13.80;;;-0.40;99.90;;;;;;4856890;29;20203;-55
2023/04/03 03:33:31;;;;;;;24.37;13.50;;;-0.40;99.90;;;;;;4857915;29;20251;-56
2023/04/03 03:35:59;;;;;;;22.33;13.63;;;-0.40;99.90;;;;;;4852334;29;20259;-56
2023/04/03 03:38:28;;;;;;;28.07;13.97;;;-0.40;99.90;;;;;;4843374;29;20323;-55
2023/04/03 03:40:56;;;;;;;24.97;13.83;;;-0.40;99.90;;;;;;4852917;29;20234;-56
2023/04/03 03:43:24;;;;;;;22.77;13.77;;;-0.40;99.90;;;;;;4855617;29;20255;-56
2023/04/03 03:45:53;;;;;;;27.00;13.43;;;-0.40;99.90;;;;;;4852795;29;20842;-56
2023/04/03 03:48:22;;;;;;;21.27;13.30;;;-0.40;99.90;;;;;;4851922;29;20228;-55
2023/04/03 03:50:52;;;;;;;25.93;14.10;;;-0.40;99.90;;;;;;4851555;29;20311;-56
2023/04/03 03:53:20;;;;;;;24.27;14.47;;;-0.40;99.90;;;;;;4858496;29;20283;-55
2023/04/03 03:55:48;;;;;;;22.30;13.40;;;-0.50;99.90;;;;;;4852289;29;20354;-56
2023/04/03 03:58:16;;;;;;;23.03;14.43;;;-0.50;99.90;;;;;;4855656;29;20204;-54
2023/04/03 04:00:44;;;;;;;27.17;14.37;;;-0.50;99.90;;;;;;4855518;29;20641;-56
2023/04/03 04:03:13;;;;;;;19.47;13.87;;;-0.50;99.90;;;;;;4853145;29;20241;-56
2023/04/03 04:05:41;;;;;;;20.70;13.63;;;-0.50;99.90;;;;;;4854884;29;20721;-56
2023/04/03 04:08:11;;;;;;;25.83;14.93;;;-0.50;99.90;;;;;;4851983;29;20228;-55
2023/04/03 04:10:39;;;;;;;25.63;13.63;;;-0.40;99.90;;;;;;4856908;29;20256;-55
2023/04/03 04:13:07;;;;;;;25.60;13.77;;;-0.50;99.90;;;;;;4851533;29;21085;-56
2023/04/03 04:15:36;;;;;;;24.63;14.17;;;-0.50;99.90;;;;;;4848364;29;20228;-56
2023/04/03 04:18:04;;;;;;;23.07;14.40;;;-0.50;99.90;;;;;;4857689;29;20235;-56
2023/04/03 04:20:33;;;;;;;28.17;14.43;;;-0.60;99.90;;;;;;4855730;29;20224;-55
2023/04/03 04:23:01;;;;;;;23.80;13.77;;;-0.60;99.90;;;;;;4845690;29;20232;-54
2023/04/03 04:25:30;;;;;;;23.23;13.93;;;-0.60;99.90;;;;;;4854271;29;20205;-54
2023/04/03 04:27:59;;;;;;;21.37;13.30;;;-0.60;99.90;;;;;;4855308;29;20283;-55
2023/04/03 04:30:27;;;;;;;22.43;13.40;;;-0.60;99.90;;;;;;4860741;29;20230;-55
2023/04/03 04:32:55;;;;;;;24.20;14.10;;;-0.60;99.90;;;;;;4860423;29;20231;-55
2023/04/03 04:35:24;;;;;;;23.20;13.53;;;-0.60;99.90;;;;;;4852319;29;20235;-56
2023/04/03 04:37:52;;;;;;;24.23;14.27;;;-0.70;99.90;;;;;;4855396;29;20326;-55
2023/04/03 04:40:20;;;;;;;21.70;14.17;;;-0.70;99.90;;;;;;4861282;29;20223;-56
2023/04/03 04:42:50;;;;;;;23.23;14.13;;;-0.70;99.90;;;;;;4849375;29;20227;-55
2023/04/03 04:45:18;;;;;;;25.43;14.93;;;-0.80;99.90;;;;;;4858799;29;20220;-54
2023/04/03 04:47:47;;;;;;;26.70;15.10;;;-0.80;99.90;;;;;;4849084;29;20292;-55
2023/04/03 04:50:16;;;;;;;21.97;14.30;;;-0.80;99.90;;;;;;4859299;29;20259;-56
2023/04/03 04:52:44;;;;;;;21.40;13.90;;;-0.80;99.90;;;;;;4860313;29;20291;-55
2023/04/03 04:55:12;;;;;;;25.07;14.83;;;-0.90;99.90;;;;;;4851297;29;20219;-54
2023/04/03 04:57:40;;;;;;;28.27;15.27;;;-0.90;99.90;;;;;;4855456;29;20592;-54
2023/04/03 05:00:11;;;;;;;21.70;14.47;;;-0.90;99.90;;;;;;4850987;29;20571;-54
2023/04/03 05:02:40;;;;;;;28.23;15.30;;;-0.90;99.90;;;;;;4853459;29;20219;-55
2023/04/03 05:05:09;;;;;;;25.77;14.07;;;-0.90;99.90;;;;;;4857738;29;20262;-55
2023/04/03 05:07:38;;;;;;;23.83;14.50;;;-0.80;99.90;;;;;;4858335;29;20254;-55
2023/04/03 05:10:08;;;;;;;24.83;14.87;;;-0.80;99.90;;;;;;4852586;29;20230;-53
2023/04/03 05:12:36;;;;;;;27.20;14.70;;;-0.80;99.90;;;;;;4852873;29;20300;-55
2023/04/03 05:15:05;;;;;;;30.27;16.43;;;-0.80;99.90;;;;;;4858363;29;20647;-54
2023/04/03 05:17:35;;;;;;;27.67;16.53;;;-0.70;99.90;;;;;;4858677;29;20219;-53
2023/04/03 05:20:04;;;;;;;33.90;17.43;;;-0.60;99.90;;;;;;4855938;29;20710;-54
2023/04/03 05:22:32;;;;;;;33.63;16.87;;;-0.50;99.90;;;;;;4859171;29;20681;-55
2023/04/03 05:25:01;;;;;;;29.83;17.50;;;-0.40;99.90;;;;;;4855092;29;20225;-54
2023/04/03 05:27:29;;;;;;;26.57;16.73;;;-0.40;99.90;;;;;;4856463;29;20651;-53
2023/04/03 05:29:57;;;;;;;29.53;17.10;;;-0.40;99.90;;;;;;4856072;29;20579;-56
2023/04/03 05:32:27;;;;;;;36.27;17.13;;;-0.50;99.90;;;;;;4856575;29;20228;-54
2023/04/03 05:34:57;;;;;;;30.63;17.00;;;-0.30;99.90;;;;;;4857450;29;20734;-55
2023/04/03 05:37:28;;;;;;;30.67;17.27;;;-0.20;99.90;;;;;;4859508;29;20282;-52
2023/04/03 05:39:56;;;;;;;30.77;17.43;;;-0.20;99.90;;;;;;4857180;29;20341;-55
2023/04/03 05:42:24;;;;;;;32.73;16.87;;;-0.20;99.90;;;;;;4855050;29;20268;-54
2023/04/03 05:44:53;;;;;;;27.80;17.10;;;-0.20;99.90;;;;;;4858699;29;20813;-55
2023/04/03 05:47:21;;;;;;;31.50;16.97;;;-0.20;99.90;;;;;;4854886;29;20743;-56
2023/04/03 05:49:49;;;;;;;26.40;17.07;;;-0.20;99.90;;;;;;4845917;29;20203;-55
2023/04/03 05:52:23;;;;;;;33.13;18.47;;;-0.10;99.90;;;;;;4856303;29;20208;-55
2023/04/03 05:54:52;;;;;;;28.13;17.60;;;0.00;99.90;;;;;;4854695;29;20283;-56
2023/04/03 05:57:20;;;;;;;37.87;18.50;;;0.00;99.90;;;;;;4856211;29;20231;-56
2023/04/03 05:59:49;;;;;;;33.23;18.23;;;0.10;99.90;;;;;;4854807;29;20591;-56
2023/04/03 06:02:20;;;;;;;32.90;19.43;;;0.20;99.90;;;;;;4857221;29;20215;-56
2023/04/03 06:04:49;;;;;;;30.93;19.00;;;0.20;99.90;;;;;;4853823;29;20252;-54
2023/04/03 06:07:22;;;;;;;34.53;19.63;;;0.30;99.90;;;;;;4855204;29;20200;-55
2023/04/03 06:09:51;;;;;;;42.00;20.10;;;0.40;99.90;;;;;;4856235;29;20305;-56
2023/04/03 06:12:20;;;;;;;37.00;19.57;;;0.50;99.90;;;;;;4849671;29;20297;-56
2023/04/03 06:14:48;;;;;;;33.87;19.93;;;0.60;99.90;;;;;;4855997;29;20227;-55
2023/04/03 06:17:17;;;;;;;35.07;20.10;;;0.70;99.90;;;;;;4847256;29;20228;-55
2023/04/03 06:19:46;;;;;;;36.83;20.73;;;0.90;99.90;;;;;;4848212;29;20255;-55
2023/04/03 06:22:15;;;;;;;33.13;20.80;;;1.20;99.90;;;;;;4856725;29;20198;-56
2023/04/03 06:24:45;;;;;;;34.23;20.90;;;1.30;99.90;;;;;;4853441;29;20690;-56
2023/04/03 06:27:13;;;;;;;31.50;20.70;;;1.60;99.90;;;;;;4858536;29;20261;-56
2023/04/03 06:29:42;;;;;;;35.00;21.40;;;1.70;99.90;;;;;;4856722;29;20279;-56
2023/04/03 06:32:10;;;;;;;36.70;22.30;;;1.90;99.90;;;;;;4854581;29;20232;-56
2023/04/03 06:34:38;;;;;;;35.77;22.57;;;2.30;99.90;;;;;;4852970;29;20267;-56
2023/04/03 06:37:06;;;;;;;33.63;21.10;;;2.80;99.90;;;;;;4848848;29;20200;-55
2023/04/03 06:39:35;;;;;;;29.60;18.07;;;3.40;99.90;;;;;;4852152;29;20303;-55
2023/04/03 06:42:05;;;;;;;24.00;15.53;;;4.00;99.90;;;;;;4851867;29;20231;-56
2023/04/03 06:44:34;;;;;;;15.37;12.43;;;4.60;99.90;;;;;;4858522;29;20275;-56
2023/04/03 06:47:03;;;;;;;21.70;11.40;;;5.20;99.90;;;;;;4856708;29;20247;-57
2023/04/03 06:49:31;;;;;;;16.40;10.77;;;5.70;99.90;;;;;;4855787;29;20264;-55
2023/04/03 06:52:00;;;;;;;14.40;9.37;;;6.40;99.90;;;;;;4851565;29;20255;-56
2023/04/03 06:54:29;;;;;;;13.03;9.03;;;6.50;99.90;;;;;;4852242;29;20227;-55
2023/04/03 06:56:58;;;;;;;10.97;8.57;;;6.70;99.90;;;;;;4858204;29;20261;-56
2023/04/03 06:59:28;;;;;;;10.27;8.83;;;6.80;99.90;;;;;;4806364;29;1353070;-54
2023/04/03 07:01:56;;;;;;;13.10;8.73;;;6.80;99.90;;;;;;4853107;29;20238;-57
2023/04/03 07:04:25;;;;;;;9.27;8.30;;;7.00;99.90;;;;;;4856584;29;20196;-57
2023/04/03 07:06:55;;;;;;;12.50;8.20;;;7.40;99.90;;;;;;4855238;29;20721;-57
2023/04/03 07:09:24;;;;;;;11.40;8.33;;;7.60;99.90;;;;;;4856519;29;20232;-57
2023/04/03 07:11:52;;;;;;;11.43;8.13;;;8.00;99.90;;;;;;4854629;29;20227;-57
2023/04/03 07:14:21;;;;;;;10.93;8.10;;;8.60;99.90;;;;;;4845376;29;20223;-58
2023/04/03 07:16:50;;;;;;;13.37;8.57;;;8.50;99.90;;;;;;4853320;29;20570;-56
2023/04/03 07:19:19;;;;;;;9.30;8.30;;;8.60;99.90;;;;;;4851607;29;20196;-57
2023/04/03 07:21:47;;;;;;;13.30;8.13;;;9.10;99.90;;;;;;4849660;29;20273;-57
2023/04/03 07:24:16;;;;;;;9.43;8.50;;;9.60;99.90;;;;;;4856857;29;20714;-57
2023/04/03 07:26:45;;;;;;;9.57;7.33;;;10.10;99.90;;;;;;4852404;29;20223;-57
2023/04/03 07:29:14;;;;;;;11.23;7.87;;;10.50;99.90;;;;;;4858388;29;20239;-58
2023/04/03 07:31:44;;;;;;;12.47;8.70;;;10.40;99.90;;;;;;4856959;29;20199;-57
2023/04/03 07:34:14;;;;;;;11.17;8.17;;;10.20;99.90;;;;;;4858064;29;20256;-58
2023/04/03 07:36:42;;;;;;;12.10;7.40;;;10.10;99.90;;;;;;4848356;29;20575;-57
2023/04/03 07:39:11;;;;;;;9.70;7.30;;;10.20;99.90;;;;;;4854579;29;20231;-58
2023/04/03 07:41:39;;;;;;;8.23;7.23;;;10.10;99.90;;;;;;4856822;29;20223;-59
2023/04/03 07:44:09;;;;;;;9.93;7.40;;;9.50;99.90;;;;;;4854389;29;20223;-58
2023/04/03 07:46:38;;;;;;;7.67;6.80;;;9.50;99.90;;;;;;4856683;29;20192;-58
2023/04/03 07:49:06;;;;;;;9.03;7.23;;;9.50;99.90;;;;;;4859685;29;20249;-58
2023/04/03 07:51:36;;;;;;;9.43;7.23;;;9.70;99.90;;;;;;4857738;29;20228;-57
2023/04/03 07:54:04;;;;;;;11.40;7.03;;;10.20;99.90;;;;;;4857827;29;20766;-58
2023/04/03 07:56:34;;;;;;;7.43;6.67;;;10.60;99.90;;;;;;4854234;29;20235;-59
2023/04/03 07:59:02;;;;;;;8.87;6.37;;;10.80;99.90;;;;;;4859111;29;20239;-58
2023/04/03 08:01:32;;;;;;;8.37;6.90;;;10.90;99.90;;;;;;4855975;29;20228;-58
2023/04/03 08:04:00;;;;;;;7.03;6.37;;;11.00;99.90;;;;;;4859161;29;20259;-58
2023/04/03 08:06:30;;;;;;;11.20;6.27;;;10.80;99.90;;;;;;4859968;29;20219;-58
2023/04/03 08:09:15;;;;;;;8.73;5.87;;;10.60;99.90;;;;;;4858179;29;20259;-57
2023/04/03 08:11:44;;;;;;;12.03;6.03;;;10.70;99.90;;;;;;4856256;29;20307;-58
2023/04/03 08:14:16;;;;;;;11.80;6.10;;;10.80;99.90;;;;;;4862210;29;20227;-58
2023/04/03 08:16:46;;;;;;;6.33;5.20;;;11.00;99.90;;;;;;4859485;29;21717;-58
2023/04/03 08:19:15;;;;;;;5.63;5.03;;;11.00;99.90;;;;;;4858205;29;20199;-57
2023/04/03 08:21:54;;;;;;;5.93;5.20;;;11.50;99.90;;;;;;4860487;29;20231;-58
2023/04/03 08:24:25;;;;;;;7.03;5.70;;;11.50;99.90;;;;;;4860559;29;20223;-57
2023/04/03 08:26:56;;;;;;;6.00;5.00;;;11.80;99.90;;;;;;4859369;29;20230;-58
2023/04/03 08:29:25;;;;;;;5.53;5.03;;;12.30;99.90;;;;;;4861080;29;20235;-58
2023/04/03 08:31:56;;;;;;;5.30;4.80;;;12.70;99.90;;;;;;4854728;29;20253;-58
2023/04/03 08:34:24;;;;;;;5.33;4.67;;;13.00;99.90;;;;;;4856888;29;20258;-58
2023/04/03 08:36:52;;;;;;;6.33;4.70;;;13.40;99.90;;;;;;4855943;29;20226;-58
2023/04/03 08:39:21;;;;;;;8.33;4.27;;;13.20;99.90;;;;;;4853373;29;20301;-56
2023/04/03 08:41:51;;;;;;;4.67;4.13;;;13.30;99.90;;;;;;4861005;29;20230;-56
2023/04/03 08:44:26;;;;;;;5.53;4.30;;;13.00;99.90;;;;;;4846765;29;20230;-56
2023/04/03 08:47:05;;;;;;;5.83;4.47;;;13.10;99.90;;;;;;4853359;29;20704;-55
2023/04/03 08:49:36;;;;;;;5.00;4.47;;;13.30;99.90;;;;;;4859943;29;20236;-55
2023/04/03 08:52:10;;;;;;;9.90;4.40;;;13.60;99.90;;;;;;4861209;29;20199;-57
2023/04/03 08:54:49;;;;;;;5.27;4.03;;;13.60;99.90;;;;;;4860147;29;20222;-56
2023/04/03 08:57:21;;;;;;;5.30;4.50;;;13.40;99.90;;;;;;4854454;29;20230;-56
2023/04/03 08:59:49;;;;;;;5.43;4.40;;;13.70;99.90;;;;;;4859305;29;20416;-56
2023/04/03 09:02:27;;;;;;;4.37;3.90;;;13.90;99.90;;;;;;4861003;29;20219;-56
2023/04/03 09:04:56;;;;;;;4.03;3.43;;;13.70;99.90;;;;;;4858819;29;20231;-56
2023/04/03 09:07:34;;;;;;;4.23;3.83;;;13.50;99.90;;;;;;4861573;29;20244;-56
2023/04/03 09:10:03;;;;;;;8.30;4.40;;;13.30;99.90;;;;;;4855314;29;20223;-56
2023/04/03 09:12:39;;;;;;;4.50;4.10;;;13.10;99.90;;;;;;4862060;29;20235;-57
2023/04/03 09:15:16;;;;;;;5.30;3.90;;;13.10;99.90;;;;;;4857540;29;20255;-57
2023/04/03 09:18:00;;;;;;;5.13;3.90;;;13.00;99.90;;;;;;4848826;29;20323;-56
2023/04/03 09:20:39;;;;;;;6.10;4.47;;;13.10;99.90;;;;;;4850491;29;20233;-56
2023/04/03 09:23:23;;;;;;;5.07;4.13;;;13.10;99.90;;;;;;4859385;29;20231;-56
2023/04/03 09:25:57;;;;;;;4.70;3.77;;;13.50;99.90;;;;;;4855370;29;20584;-56
2023/04/03 09:28:28;;;;;;;5.20;3.37;;;14.10;99.90;;;;;;4861314;29;20204;-56
2023/04/03 09:31:07;;;;;;;6.23;3.53;;;13.80;99.90;;;;;;4850853;29;20695;-56
2023/04/03 09:33:36;;;;;;;4.30;3.30;;;13.40;99.90;;;;;;4852887;29;20576;-56
2023/04/03 09:36:05;;;;;;;4.30;3.47;;;14.00;99.90;;;;;;4857952;29;20609;-57
2023/04/03 09:38:34;;;;;;;10.87;3.00;;;14.20;99.90;;;;;;4857235;29;20227;-56
2023/04/03 09:41:07;;;;;;;3.23;2.90;;;14.10;99.90;;;;;;4861138;29;20295;-57
2023/04/03 09:43:39;;;;;;;4.20;3.07;;;14.40;99.90;;;;;;4859813;29;20200;-57
2023/04/03 09:46:29;;;;;;;3.27;2.73;;;14.80;99.90;;;;;;4846492;29;20204;-57
2023/04/03 09:48:59;;;;;;;3.87;2.70;;;15.20;99.90;;;;;;4850914;29;20224;-56
2023/04/03 09:51:37;;;;;;;6.00;2.70;;;15.20;99.90;;;;;;4858953;29;20238;-56
2023/04/03 09:54:32;;;;;;;2.77;2.53;;;15.40;99.90;;;;;;4856853;29;20767;-57
2023/04/03 09:57:05;;;;;;;4.03;2.90;;;15.40;99.90;;;;;;4860827;29;20248;-57
2023/04/03 09:59:35;;;;;;;3.00;2.73;;;15.50;99.90;;;;;;4856717;29;20231;-57
2023/04/03 10:02:17;;;;;;;4.43;3.00;;;15.60;99.90;;;;;;4852898;29;20740;-57
2023/04/03 10:04:46;;;;;;;2.97;2.70;;;15.80;99.90;;;;;;4868387;29;20200;-57
2023/04/03 10:07:33;;;;;;;4.60;2.83;;;16.10;99.90;;;;;;4857945;29;20199;-56
2023/04/03 10:10:04;;;;;;;3.60;3.03;;;15.40;99.90;;;;;;4853988;29;20219;-57
2023/04/03 10:12:33;;;;;;;4.27;2.80;;;15.60;99.90;;;;;;4848687;29;20224;-57
2023/04/03 10:15:03;;;;;;;3.10;2.80;;;16.10;99.90;;;;;;4857889;29;20276;-57
2023/04/03 10:17:55;;;;;;;3.47;3.00;;;16.10;99.90;;;;;;4854713;29;20227;-57
2023/04/03 10:20:34;;;;;;;3.60;2.57;;;16.40;99.90;;;;;;4854798;29;20310;-58
2023/04/03 10:23:15;;;;;;;4.00;2.60;;;16.60;99.90;;;;;;4856185;29;20642;-57
2023/04/03 10:25:54;;;;;;;2.80;2.50;;;16.00;99.90;;;;;;4857489;29;20205;-60
2023/04/03 10:28:27;;;;;;;5.50;2.50;;;15.40;99.90;;;;;;4855447;29;20594;-59
2023/04/03 10:31:05;;;;;;;4.03;2.40;;;15.60;99.90;;;;;;4854696;29;20219;-59
2023/04/03 10:33:45;;;;;;;4.60;2.50;;;15.70;99.90;;;;;;4850822;29;20265;-56
2023/04/03 10:36:22;;;;;;;2.33;2.13;;;15.70;99.90;;;;;;4852963;29;20287;-57
2023/04/03 10:38:58;;;;;;;2.57;2.40;;;16.30;99.90;;;;;;4852957;29;20314;-56
2023/04/03 10:41:40;;;;;;;2.57;2.37;;;15.80;99.90;;;;;;4853343;29;20276;-57
2023/04/03 10:44:16;;;;;;;7.53;2.90;;;15.70;99.90;;;;;;4855670;29;20223;-57
2023/04/03 10:46:50;;;;;;;4.13;2.47;;;15.20;99.90;;;;;;4857398;29;20236;-56
2023/04/03 10:49:30;;;;;;;5.23;2.70;;;15.00;99.90;;;;;;4856084;29;20274;-58
2023/04/03 10:52:04;;;;;;;2.47;2.30;;;14.90;99.90;;;;;;4853876;29;20315;-57
2023/04/03 10:54:37;;;;;;;2.93;2.37;;;15.20;99.90;;;;;;4855246;29;20253;-59
2023/04/03 10:57:09;;;;;;;2.23;2.10;;;15.90;98.80;;;;;;4859278;29;20310;-59
2023/04/03 10:59:46;;;;;;;4.20;2.43;;;15.90;98.30;;;;;;4857199;29;20713;-60
2023/04/03 11:02:23;;;;;;;2.47;2.27;;;16.30;99.90;;;;;;4859504;29;20280;-59
2023/04/03 11:04:57;;;;;;;2.50;2.30;;;16.60;99.70;;;;;;4859911;29;20196;-59
2023/04/03 11:07:30;;;;;;;2.10;2.00;;;16.60;97.90;;;;;;4859805;29;20563;-59
2023/04/03 11:10:04;;;;;;;3.53;2.00;;;16.00;95.90;;;;;;4850831;29;20268;-59
2023/04/03 11:12:41;;;;;;;2.30;2.10;;;15.80;96.70;;;;;;4858113;29;20234;-58
2023/04/03 11:15:14;;;;;;;3.93;2.37;;;16.00;98.30;;;;;;4857549;29;20275;-59
2023/04/03 11:17:50;;;;;;;3.17;2.50;;;15.70;97.10;;;;;;4851623;29;20617;-60
2023/04/03 11:20:27;;;;;;;3.17;2.00;;;15.80;97.90;;;;;;4855095;29;20717;-59
2023/04/03 11:23:01;;;;;;;3.57;2.10;;;15.60;96.00;;;;;;4847656;29;20230;-59
2023/04/03 11:25:32;;;;;;;2.37;1.93;;;15.60;95.30;;;;;;4854426;29;20212;-59
2023/04/03 11:28:03;;;;;;;2.10;1.90;;;15.30;95.70;;;;;;4857241;29;20762;-59
2023/04/03 11:30:39;;;;;;;2.27;2.00;;;15.60;95.10;;;;;;4855609;29;20223;-60
2023/04/03 11:33:31;;;;;;;3.50;2.03;;;15.60;96.00;;;;;;4848467;29;20231;-59
2023/04/03 11:36:04;;;;;;;2.60;2.10;;;15.70;95.50;;;;;;4858710;29;20223;-59
2023/04/03 11:38:55;;;;;;;2.40;2.00;;;15.80;96.00;;;;;;4860765;29;20235;-58
2023/04/03 11:41:28;;;;;;;3.20;2.10;;;15.60;95.70;;;;;;4857582;29;20223;-58
2023/04/03 11:44:00;;;;;;;2.30;2.10;;;15.00;95.30;;;;;;4862896;29;20238;-59
2023/04/03 11:46:50;;;;;;;2.17;1.97;;;14.90;94.80;;;;;;4863638;29;20200;-58
2023/04/03 11:50:00;;;;;;;2.90;1.80;;;15.10;96.40;;;;;;4859468;29;20660;-59
2023/04/03 11:53:00;;;;;;;4.23;2.37;;;15.50;98.00;;;;;;4851292;29;20343;-58
2023/04/03 11:55:52;;;;;;;2.63;1.93;;;15.50;95.70;;;;;;4858192;29;20199;-59
2023/04/03 11:58:22;;;;;;;3.07;2.00;;;15.50;96.10;;;;;;4859484;29;20215;-59
2023/04/03 12:01:00;;;;;;;4.93;2.43;;;15.20;96.40;;;;;;4862566;29;20237;-59
2023/04/03 12:04:07;;;;;;;3.90;2.17;;;14.80;95.00;;;;;;4863236;29;20254;-58
2023/04/03 12:07:04;;;;;;;2.37;1.90;;;14.50;96.90;;;;;;4856956;29;20238;-58
2023/04/03 12:10:02;;;;;;;5.07;2.23;;;14.60;95.10;;;;;;4860840;29;20229;-58
2023/04/03 12:12:38;;;;;;;2.33;1.77;;;14.10;98.20;;;;;;4860172;29;20264;-59
2023/04/03 12:15:45;;;;;;;3.70;1.90;;;14.50;95.70;;;;;;4855239;29;20296;-59
2023/04/03 12:18:49;;;;;;;3.53;2.07;;;13.90;94.50;;;;;;4854483;29;20279;-58
2023/04/03 12:21:18;;;;;;;2.70;2.07;;;13.60;95.70;;;;;;4861191;29;20254;-58
2023/04/03 12:24:23;;;;;;;2.17;1.93;;;13.40;94.50;;;;;;4860316;29;20231;-58
2023/04/03 12:27:03;;;;;;;2.83;2.20;;;13.60;97.00;;;;;;4862896;29;20643;-58
2023/04/03 12:29:38;;;;;;;3.83;2.20;;;13.60;94.80;;;;;;4854290;29;20227;-58
2023/04/03 12:32:20;;;;;;;2.23;2.00;;;13.50;94.90;;;;;;4862425;29;20587;-58
2023/04/03 12:35:06;;;;;;;3.80;2.10;;;13.40;94.80;;;;;;4862972;29;20192;-59
2023/04/03 12:37:57;;;;;;;2.13;2.00;;;13.50;95.40;;;;;;4857680;29;20225;-59
2023/04/03 12:40:32;;;;;;;1.50;1.50;;;13.40;95.40;;;;;;4855162;29;20280;-58
2023/04/03 12:43:21;;;;;;;2.10;2.00;;;13.40;95.10;;;;;;4859443;29;20309;-59
2023/04/03 12:45:54;;;;;;;5.87;2.20;;;13.30;94.40;;;;;;4853780;29;20674;-58
2023/04/03 12:48:27;;;;;;;2.33;2.10;;;13.10;94.40;;;;;;4861861;29;20215;-58
2023/04/03 12:50:56;;;;;;;3.17;2.37;;;13.20;96.80;;;;;;4854450;29;20279;-58
2023/04/03 12:53:30;;;;;;;2.70;2.00;;;13.10;95.30;;;;;;4857212;29;20219;-58
2023/04/03 12:56:21;;;;;;;3.47;2.07;;;13.20;95.40;;;;;;4861793;29;20239;-58
2023/04/03 12:58:50;;;;;;;6.40;1.90;;;13.10;94.20;;;;;;4855917;29;20226;-58
2023/04/03 13:01:22;;;;;;;1.90;1.80;;;12.90;93.30;;;;;;4857278;29;20264;-57
2023/04/03 13:03:54;;;;;;;2.77;1.70;;;12.50;92.80;;;;;;4857135;29;20587;-58